KICT/ICT METAR and TAF weather

Enter ICAO airport designator
Station Type Date Time Source
KICT METAR 2024/06/15 21:53 UTC NOAA

KICT 152153Z 19018G26KT 10SM FEW080 SCT160 BKN200 OVC220 33/16 A2980 RMK AO2 PK WND 18031/2100 SLP075 OCNL LTGICCG DSNT SW-W AND NW TCU DSNT SW AND NW MOV NE T03330161


Station Type Date Time Source
KICT Decoded METAR 2024/06/15 21:53 UTC NOAA

WICHITA MID-CONTINENT AIRPORT , KS, United States (KICT) 37-39N 97-26W 408M
Jun 15, 2024 - 05:53 PM EDT / 2024.06.15 2153 UTC
Wind: from the S (190 degrees) at 21 MPH (18 KT) gusting to 30 MPH (26 KT):0
Visibility: 10 mile(s):0
Sky conditions: overcast
Weather: Towering cumulus clouds, lightning observed
Temperature: 91.9 F (33.3 C)
Dew Point: 61.0 F (16.1 C)
Relative Humidity: 35%
Pressure (altimeter): 29.8 in. Hg (1009 hPa)
ob: KICT 152153Z 19018G26KT 10SM FEW080 SCT160 BKN200 OVC220 33/16 A2980 RMK AO2 PK WND 18031/2100 SLP075 OCNL LTGICCG DSNT SW-W AND NW TCU DSNT SW AND NW MOV NE T03330161
cycle: 22

Station Type Date Time Source
KICT TAF 2024/06/15 22:24 UTC NOAA